Glenelg, Maryland
Current Conditions -  °F | °C
As of 1:35 PM on Sunday 21 Dec 2014 (Local Time) from KGAI Reporting Station
Broken Clouds Broken Clouds  
Wind Chill: 37°   Ceiling: 6500
Heat Index: 37°   Visibility: 10mi
Dew Point: 21°   Wind: 0mph
Humidity: 52%   Direction: NA
Pressure: 30.33"   Gusts: NA
Location:  39.26°N, 77°W
Report Text: KGAI 211835Z 00000KT 10SM BKN065 03/M06 A3033 RMK AO1
Loading
Personal Weather Stations






























Interactive Weather Map New forecast layout! Learn more

10-Day Weather Forecast

Advertisements
Track Severe Weather on mobile